sensor_id;sensor_type;location;lat;lon;timestamp;pressure;altitude;pressure_sealevel;temperature;humidity
15932;BME280;8065;49.520;11.284;2023-10-13T00:02:06;97572.28;;;19.51;92.76
15932;BME280;8065;49.520;11.284;2023-10-13T00:04:36;97568.78;;;19.47;93.12
15932;BME280;8065;49.520;11.284;2023-10-13T00:07:05;97564.94;;;19.48;93.37
15932;BME280;8065;49.520;11.284;2023-10-13T00:09:34;97561.13;;;19.53;93.29
15932;BME280;8065;49.520;11.284;2023-10-13T00:12:04;97564.22;;;19.51;93.12
15932;BME280;8065;49.520;11.284;2023-10-13T00:14:34;97557.28;;;19.54;92.73
15932;BME280;8065;49.520;11.284;2023-10-13T00:17:06;97560.31;;;19.49;92.71
15932;BME280;8065;49.520;11.284;2023-10-13T00:19:41;97562.28;;;19.52;93.13
15932;BME280;8065;49.520;11.284;2023-10-13T00:22:13;97549.94;;;19.51;93.23
15932;BME280;8065;49.520;11.284;2023-10-13T00:24:43;97561.91;;;19.53;92.96
15932;BME280;8065;49.520;11.284;2023-10-13T00:27:13;97557.34;;;19.61;93.01
15932;BME280;8065;49.520;11.284;2023-10-13T00:29:55;97561.25;;;19.67;92.45
15932;BME280;8065;49.520;11.284;2023-10-13T00:32:45;97554.31;;;19.66;92.42
15932;BME280;8065;49.520;11.284;2023-10-13T00:35:18;97552.75;;;19.65;92.45
15932;BME280;8065;49.520;11.284;2023-10-13T00:37:54;97548.06;;;19.55;92.23
15932;BME280;8065;49.520;11.284;2023-10-13T00:40:24;97547.22;;;19.51;92.59
15932;BME280;8065;49.520;11.284;2023-10-13T00:43:05;97543.72;;;19.47;93.13
15932;BME280;8065;49.520;11.284;2023-10-13T00:45:59;97540.63;;;19.45;92.36
15932;BME280;8065;49.520;11.284;2023-10-13T00:48:35;97538.34;;;19.47;92.75
15932;BME280;8065;49.520;11.284;2023-10-13T00:51:10;97535.63;;;19.43;92.88
15932;BME280;8065;49.520;11.284;2023-10-13T00:53:48;97528.72;;;19.46;92.79
15932;BME280;8065;49.520;11.284;2023-10-13T00:56:14;97534.06;;;19.42;92.81
15932;BME280;8065;49.520;11.284;2023-10-13T00:58:53;97537.53;;;19.43;92.71
15932;BME280;8065;49.520;11.284;2023-10-13T01:01:19;97534.06;;;19.42;93.08
15932;BME280;8065;49.520;11.284;2023-10-13T01:03:57;97534.84;;;19.43;92.79
15932;BME280;8065;49.520;11.284;2023-10-13T01:06:25;97541.03;;;19.47;92.73
15932;BME280;8065;49.520;11.284;2023-10-13T01:08:59;97541.44;;;19.49;92.84
15932;BME280;8065;49.520;11.284;2023-10-13T01:11:36;97537.19;;;19.48;92.36
15932;BME280;8065;49.520;11.284;2023-10-13T01:14:04;97544.13;;;19.49;92.57
15932;BME280;8065;49.520;11.284;2023-10-13T01:16:31;97545.69;;;19.50;92.90
15932;BME280;8065;49.520;11.284;2023-10-13T01:19:03;97545.69;;;19.50;92.38
15932;BME280;8065;49.520;11.284;2023-10-13T01:21:30;97534.56;;;19.55;92.97
15932;BME280;8065;49.520;11.284;2023-10-13T01:24:02;97531.88;;;19.55;92.48
15932;BME280;8065;49.520;11.284;2023-10-13T01:26:33;97528.03;;;19.56;92.56
15932;BME280;8065;49.520;11.284;2023-10-13T01:29:04;97528.78;;;19.53;92.62
15932;BME280;8065;49.520;11.284;2023-10-13T01:31:38;97524.19;;;19.57;92.05
15932;BME280;8065;49.520;11.284;2023-10-13T01:34:11;97522.56;;;19.49;92.04
15932;BME280;8065;49.520;11.284;2023-10-13T01:36:40;97520.28;;;19.51;92.56
15932;BME280;8065;49.520;11.284;2023-10-13T01:39:09;97527.16;;;19.45;92.60
15932;BME280;8065;49.520;11.284;2023-10-13T01:41:42;97520.22;;;19.44;92.16
15932;BME280;8065;49.520;11.284;2023-10-13T01:44:08;97524.00;;;19.36;92.39
15932;BME280;8065;49.520;11.284;2023-10-13T01:46:37;97531.31;;;19.35;92.67
15932;BME280;8065;49.520;11.284;2023-10-13T01:49:03;97530.59;;;19.42;92.63
15932;BME280;8065;49.520;11.284;2023-10-13T01:51:32;97530.22;;;19.43;92.45
15932;BME280;8065;49.520;11.284;2023-10-13T01:53:58;97531.00;;;19.44;92.24
15932;BME280;8065;49.520;11.284;2023-10-13T01:56:31;97529.47;;;19.43;92.71
15932;BME280;8065;49.520;11.284;2023-10-13T01:58:57;97521.03;;;19.48;92.61
15932;BME280;8065;49.520;11.284;2023-10-13T02:01:33;97522.63;;;19.52;92.20
15932;BME280;8065;49.520;11.284;2023-10-13T02:03:59;97519.56;;;19.54;92.50
15932;BME280;8065;49.520;11.284;2023-10-13T02:06:33;97523.44;;;19.56;92.16
15932;BME280;8065;49.520;11.284;2023-10-13T02:09:00;97520.34;;;19.58;91.84
15932;BME280;8065;49.520;11.284;2023-10-13T02:11:39;97516.50;;;19.59;92.12
15932;BME280;8065;49.520;11.284;2023-10-13T02:14:05;97522.69;;;19.63;91.78
15932;BME280;8065;49.520;11.284;2023-10-13T02:16:37;97525.00;;;19.64;91.58
15932;BME280;8065;49.520;11.284;2023-10-13T02:19:03;97523.88;;;19.69;91.87
15932;BME280;8065;49.520;11.284;2023-10-13T02:21:34;97514.25;;;19.68;92.07
15932;BME280;8065;49.520;11.284;2023-10-13T02:24:05;97503.47;;;19.68;92.03
15932;BME280;8065;49.520;11.284;2023-10-13T02:26:41;97511.94;;;19.67;91.56
15932;BME280;8065;49.520;11.284;2023-10-13T02:29:07;97525.78;;;19.65;91.68
15932;BME280;8065;49.520;11.284;2023-10-13T02:31:41;97515.41;;;19.67;91.33
15932;BME280;8065;49.520;11.284;2023-10-13T02:34:07;97512.72;;;19.67;91.66
15932;BME280;8065;49.520;11.284;2023-10-13T02:36:38;97514.25;;;19.68;91.43
15932;BME280;8065;49.520;11.284;2023-10-13T02:39:12;97512.31;;;19.65;91.05
15932;BME280;8065;49.520;11.284;2023-10-13T02:41:44;97508.09;;;19.68;91.54
15932;BME280;8065;49.520;11.284;2023-10-13T02:44:14;97498.81;;;19.61;90.69
15932;BME280;8065;49.520;11.284;2023-10-13T02:46:53;97513.00;;;19.55;91.16
15932;BME280;8065;49.520;11.284;2023-10-13T02:49:21;97498.72;;;19.51;91.64
15932;BME280;8065;49.520;11.284;2023-10-13T02:51:51;97497.16;;;19.50;91.38
15932;BME280;8065;49.520;11.284;2023-10-13T02:54:18;97495.63;;;19.49;91.43
15932;BME280;8065;49.520;11.284;2023-10-13T02:56:49;97496.38;;;19.49;91.13
15932;BME280;8065;49.520;11.284;2023-10-13T02:59:22;97494.41;;;19.43;92.00
15932;BME280;8065;49.520;11.284;2023-10-13T03:01:59;97493.66;;;19.46;91.85
15932;BME280;8065;49.520;11.284;2023-10-13T03:04:25;97493.66;;;19.46;91.99
15932;BME280;8065;49.520;11.284;2023-10-13T03:06:54;97483.25;;;19.41;91.72
15932;BME280;8065;49.520;11.284;2023-10-13T03:09:19;97489.44;;;19.45;92.04
15932;BME280;8065;49.520;11.284;2023-10-13T03:11:51;97488.22;;;19.39;92.35
15932;BME280;8065;49.520;11.284;2023-10-13T03:14:17;97492.09;;;19.41;91.89
15932;BME280;8065;49.520;11.284;2023-10-13T03:16:54;97487.84;;;19.37;92.33
15932;BME280;8065;49.520;11.284;2023-10-13T03:19:20;97477.06;;;19.37;92.23
15932;BME280;8065;49.520;11.284;2023-10-13T03:21:58;97487.84;;;19.37;92.26
15932;BME280;8065;49.520;11.284;2023-10-13T03:24:31;97484.34;;;19.32;92.69
15932;BME280;8065;49.520;11.284;2023-10-13T03:27:03;97480.09;;;19.31;92.81
15932;BME280;8065;49.520;11.284;2023-10-13T03:29:35;97477.44;;;19.35;92.59
15932;BME280;8065;49.520;11.284;2023-10-13T03:32:04;97478.19;;;19.36;92.39
15932;BME280;8065;49.520;11.284;2023-10-13T03:34:37;97469.38;;;19.39;92.41
15932;BME280;8065;49.520;11.284;2023-10-13T03:37:15;97467.78;;;19.34;92.60
15932;BME280;8065;49.520;11.284;2023-10-13T03:40:01;97472.41;;;19.33;92.31
15932;BME280;8065;49.520;11.284;2023-10-13T03:42:34;97473.16;;;19.30;92.83
15932;BME280;8065;49.520;11.284;2023-10-13T03:45:06;97470.06;;;19.28;93.07
15932;BME280;8065;49.520;11.284;2023-10-13T03:47:36;97460.84;;;19.29;92.99
15932;BME280;8065;49.520;11.284;2023-10-13T03:50:07;97466.97;;;19.26;92.90
15932;BME280;8065;49.520;11.284;2023-10-13T03:52:54;97460.84;;;19.29;92.96
15932;BME280;8065;49.520;11.284;2023-10-13T03:55:24;97465.44;;;19.29;93.04
15932;BME280;8065;49.520;11.284;2023-10-13T03:57:57;97461.59;;;19.30;92.57
15932;BME280;8065;49.520;11.284;2023-10-13T04:00:26;97465.44;;;19.29;92.93
15932;BME280;8065;49.520;11.284;2023-10-13T04:02:55;97462.75;;;19.29;93.24
15932;BME280;8065;49.520;11.284;2023-10-13T04:05:35;97458.88;;;19.26;93.19
15932;BME280;8065;49.520;11.284;2023-10-13T04:08:08;97463.53;;;19.29;92.65
15932;BME280;8065;49.520;11.284;2023-10-13T04:10:51;97466.22;;;19.29;92.82
15932;BME280;8065;49.520;11.284;2023-10-13T04:13:35;97457.00;;;19.34;92.31
15932;BME280;8065;49.520;11.284;2023-10-13T04:16:38;97458.59;;;19.39;92.49
15932;BME280;8065;49.520;11.284;2023-10-13T04:19:16;97448.56;;;19.36;92.25
15932;BME280;8065;49.520;11.284;2023-10-13T04:21:49;97445.88;;;19.36;92.43
15932;BME280;8065;49.520;11.284;2023-10-13T04:24:39;97441.63;;;19.35;92.25
15932;BME280;8065;49.520;11.284;2023-10-13T04:27:20;97443.91;;;19.32;92.30
15932;BME280;8065;49.520;11.284;2023-10-13T04:30:21;97447.38;;;19.29;92.10
15932;BME280;8065;49.520;11.284;2023-10-13T04:32:53;97447.38;;;19.29;92.38
15932;BME280;8065;49.520;11.284;2023-10-13T04:35:33;97457.38;;;19.32;91.98
15932;BME280;8065;49.520;11.284;2023-10-13T04:38:13;97446.63;;;19.32;92.21
15932;BME280;8065;49.520;11.284;2023-10-13T04:40:43;97447.00;;;19.35;91.84
15932;BME280;8065;49.520;11.284;2023-10-13T04:43:24;97448.56;;;19.36;91.51
15932;BME280;8065;49.520;11.284;2023-10-13T04:46:01;97441.66;;;19.38;91.77
15932;BME280;8065;49.520;11.284;2023-10-13T04:48:40;97435.09;;;19.39;91.27
15932;BME280;8065;49.520;11.284;2023-10-13T04:51:12;97433.56;;;19.42;90.90
15932;BME280;8065;49.520;11.284;2023-10-13T04:54:11;97431.69;;;19.46;90.48
15932;BME280;8065;49.520;11.284;2023-10-13T04:56:53;97435.53;;;19.45;90.42
15932;BME280;8065;49.520;11.284;2023-10-13T04:59:49;97432.44;;;19.46;90.23
15932;BME280;8065;49.520;11.284;2023-10-13T05:02:33;97423.19;;;19.40;90.17
15932;BME280;8065;49.520;11.284;2023-10-13T05:05:14;97421.25;;;19.41;90.13
15932;BME280;8065;49.520;11.284;2023-10-13T05:07:56;97435.88;;;19.40;89.93
15932;BME280;8065;49.520;11.284;2023-10-13T05:10:37;97425.84;;;19.37;90.00
15932;BME280;8065;49.520;11.284;2023-10-13T05:13:18;97427.75;;;19.32;90.14
15932;BME280;8065;49.520;11.284;2023-10-13T05:16:03;97436.22;;;19.35;90.18
15932;BME280;8065;49.520;11.284;2023-10-13T05:18:50;97437.00;;;19.35;89.76
15932;BME280;8065;49.520;11.284;2023-10-13T05:21:44;97440.06;;;19.33;90.25
15932;BME280;8065;49.520;11.284;2023-10-13T05:24:26;97438.47;;;19.25;90.27
15932;BME280;8065;49.520;11.284;2023-10-13T05:27:07;97441.53;;;19.20;90.91
15932;BME280;8065;49.520;11.284;2023-10-13T05:29:50;97434.63;;;19.26;90.39
15932;BME280;8065;49.520;11.284;2023-10-13T05:32:31;97431.91;;;19.19;90.42
15932;BME280;8065;49.520;11.284;2023-10-13T05:35:15;97426.06;;;19.10;91.47
15932;BME280;8065;49.520;11.284;2023-10-13T05:37:56;97432.25;;;19.14;90.87
15932;BME280;8065;49.520;11.284;2023-10-13T05:40:37;97436.09;;;19.13;91.29
15932;BME280;8065;49.520;11.284;2023-10-13T05:43:26;97431.91;;;19.19;91.18
15932;BME280;8065;49.520;11.284;2023-10-13T05:46:08;97433.41;;;19.13;91.57
15932;BME280;8065;49.520;11.284;2023-10-13T05:49:10;97433.03;;;19.15;91.49
15932;BME280;8065;49.520;11.284;2023-10-13T05:52:06;97437.63;;;19.14;91.50
15932;BME280;8065;49.520;11.284;2023-10-13T06:10:35;97451.59;;;19.27;91.59
15932;BME280;8065;49.520;11.284;2023-10-13T06:13:16;97456.25;;;19.33;91.57
15932;BME280;8065;49.520;11.284;2023-10-13T06:15:57;97449.34;;;19.36;91.12
15932;BME280;8065;49.520;11.284;2023-10-13T06:18:38;97454.00;;;19.43;91.14
15932;BME280;8065;49.520;11.284;2023-10-13T06:21:19;97454.78;;;19.47;90.98
15932;BME280;8065;49.520;11.284;2023-10-13T06:24:00;97454.78;;;19.47;90.71
15932;BME280;8065;49.520;11.284;2023-10-13T06:26:44;97452.56;;;19.56;90.72
15932;BME280;8065;49.520;11.284;2023-10-13T06:29:39;97450.25;;;19.58;90.73
15932;BME280;8065;49.520;11.284;2023-10-13T06:32:12;97451.44;;;19.60;90.03
15932;BME280;8065;49.520;11.284;2023-10-13T06:34:41;97449.09;;;19.59;90.62
15932;BME280;8065;49.520;11.284;2023-10-13T06:37:10;97450.28;;;19.65;90.89
15932;BME280;8065;49.520;11.284;2023-10-13T06:39:52;97448.78;;;19.71;90.82
15932;BME280;8065;49.520;11.284;2023-10-13T06:42:24;97448.47;;;19.83;90.65
15932;BME280;8065;49.520;11.284;2023-10-13T06:44:53;97445.00;;;19.86;89.98
15932;BME280;8065;49.520;11.284;2023-10-13T06:47:22;97446.19;;;19.92;90.85
15932;BME280;8065;49.520;11.284;2023-10-13T06:49:53;97448.09;;;19.95;90.70
15932;BME280;8065;49.520;11.284;2023-10-13T06:52:22;97449.31;;;20.12;90.07
15932;BME280;8065;49.520;11.284;2023-10-13T06:54:54;97460.91;;;20.20;88.96
15932;BME280;8065;49.520;11.284;2023-10-13T06:57:26;97459.78;;;20.32;87.37
15932;BME280;8065;49.520;11.284;2023-10-13T07:00:00;97454.00;;;20.37;85.73
15932;BME280;8065;49.520;11.284;2023-10-13T07:02:33;97458.28;;;20.45;83.99
15932;BME280;8065;49.520;11.284;2023-10-13T07:05:01;97453.69;;;20.59;83.45
15932;BME280;8065;49.520;11.284;2023-10-13T07:07:32;97453.72;;;20.67;82.42
15932;BME280;8065;49.520;11.284;2023-10-13T07:10:02;97452.16;;;20.80;80.99
15932;BME280;8065;49.520;11.284;2023-10-13T07:12:36;97458.31;;;20.84;78.74
15932;BME280;8065;49.520;11.284;2023-10-13T07:15:09;97453.69;;;20.88;77.96
15932;BME280;8065;49.520;11.284;2023-10-13T07:17:45;97454.84;;;21.01;77.86
15932;BME280;8065;49.520;11.284;2023-10-13T07:20:20;97452.13;;;21.15;76.09
15932;BME280;8065;49.520;11.284;2023-10-13T07:22:58;97452.16;;;21.22;75.79
15932;BME280;8065;49.520;11.284;2023-10-13T07:25:31;97457.56;;;21.30;75.53
15932;BME280;8065;49.520;11.284;2023-10-13T07:28:05;97452.13;;;21.40;75.10
15932;BME280;8065;49.520;11.284;2023-10-13T07:30:34;97452.91;;;21.41;74.27
15932;BME280;8065;49.520;11.284;2023-10-13T07:33:15;97453.66;;;21.55;73.39
15932;BME280;8065;49.520;11.284;2023-10-13T07:35:45;97453.66;;;21.59;73.19
15932;BME280;8065;49.520;11.284;2023-10-13T07:38:15;97452.81;;;21.69;72.20
15932;BME280;8065;49.520;11.284;2023-10-13T07:40:46;97449.28;;;21.86;72.16
15932;BME280;8065;49.520;11.284;2023-10-13T07:43:19;97448.09;;;21.95;71.06
15932;BME280;8065;49.520;11.284;2023-10-13T07:45:49;97444.59;;;22.05;70.51
15932;BME280;8065;49.520;11.284;2023-10-13T07:48:24;97435.66;;;22.11;70.06
15932;BME280;8065;49.520;11.284;2023-10-13T07:50:59;97434.81;;;22.29;69.95
15932;BME280;8065;49.520;11.284;2023-10-13T07:53:28;97441.69;;;22.40;69.21
15932;BME280;8065;49.520;11.284;2023-10-13T07:56:00;97436.16;;;22.54;69.16
15932;BME280;8065;49.520;11.284;2023-10-13T07:58:33;97433.78;;;22.64;67.91
15932;BME280;8065;49.520;11.284;2023-10-13T08:01:12;97433.31;;;22.76;67.86
15932;BME280;8065;49.520;11.284;2023-10-13T08:03:45;97433.16;;;22.97;66.62
15932;BME280;8065;49.520;11.284;2023-10-13T08:06:22;97427.16;;;23.20;66.37
15932;BME280;8065;49.520;11.284;2023-10-13T08:08:51;97430.47;;;23.38;66.33
15932;BME280;8065;49.520;11.284;2023-10-13T08:11:32;97437.84;;;23.38;64.72
15932;BME280;8065;49.520;11.284;2023-10-13T08:14:04;97436.03;;;23.62;63.70
15932;BME280;8065;49.520;11.284;2023-10-13T08:16:48;97435.66;;;23.94;63.40
15932;BME280;8065;49.520;11.284;2023-10-13T08:19:26;97441.72;;;24.05;63.25
15932;BME280;8065;49.520;11.284;2023-10-13T08:22:05;97433.94;;;24.07;63.50
15932;BME280;8065;49.520;11.284;2023-10-13T08:24:50;97428.31;;;24.21;62.86
15932;BME280;8065;49.520;11.284;2023-10-13T08:27:40;97429.53;;;24.47;62.10
15932;BME280;8065;49.520;11.284;2023-10-13T08:30:17;97433.97;;;24.61;62.68
15932;BME280;8065;49.520;11.284;2023-10-13T08:32:55;97436.72;;;24.84;61.79
15932;BME280;8065;49.520;11.284;2023-10-13T08:35:24;97428.88;;;24.90;60.83
15932;BME280;8065;49.520;11.284;2023-10-13T08:38:03;97425.19;;;25.23;61.19
15932;BME280;8065;49.520;11.284;2023-10-13T08:40:46;97431.97;;;25.35;60.03
15932;BME280;8065;49.520;11.284;2023-10-13T08:43:32;97423.97;;;25.47;59.33
15932;BME280;8065;49.520;11.284;2023-10-13T08:46:13;97428.63;;;25.90;58.84
15932;BME280;8065;49.520;11.284;2023-10-13T08:48:55;97422.06;;;26.04;56.67
15932;BME280;8065;49.520;11.284;2023-10-13T08:51:35;97426.31;;;25.89;58.18
15932;BME280;8065;49.520;11.284;2023-10-13T08:54:15;97422.31;;;26.29;57.31
15932;BME280;8065;49.520;11.284;2023-10-13T08:57:04;97422.31;;;26.29;56.16
15932;BME280;8065;49.520;11.284;2023-10-13T08:59:45;97420.78;;;25.92;56.35
15932;BME280;8065;49.520;11.284;2023-10-13T09:02:23;97427.28;;;25.78;58.07
15932;BME280;8065;49.520;11.284;2023-10-13T09:05:04;97429.03;;;25.26;57.92
15932;BME280;8065;49.520;11.284;2023-10-13T09:07:52;97421.84;;;25.78;57.35
15932;BME280;8065;49.520;11.284;2023-10-13T09:10:22;97409.19;;;25.88;57.92
15932;BME280;8065;49.520;11.284;2023-10-13T09:13:09;97405.16;;;26.32;56.98
15932;BME280;8065;49.520;11.284;2023-10-13T09:15:37;97406.88;;;26.59;57.18
15932;BME280;8065;49.520;11.284;2023-10-13T09:18:26;97404.66;;;26.86;55.73
15932;BME280;8065;49.520;11.284;2023-10-13T09:21:12;97407.69;;;26.88;54.83
15932;BME280;8065;49.520;11.284;2023-10-13T09:23:52;97401.66;;;27.42;54.48
15932;BME280;8065;49.520;11.284;2023-10-13T09:26:41;97402.00;;;27.86;53.54
15932;BME280;8065;49.520;11.284;2023-10-13T09:29:14;97401.88;;;28.44;53.62
15932;BME280;8065;49.520;11.284;2023-10-13T09:31:44;97402.16;;;28.71;52.69
15932;BME280;8065;49.520;11.284;2023-10-13T09:34:22;97408.97;;;28.28;52.50
15932;BME280;8065;49.520;11.284;2023-10-13T09:36:57;97400.41;;;27.30;53.08
15932;BME280;8065;49.520;11.284;2023-10-13T09:39:24;97399.94;;;27.48;53.67
15932;BME280;8065;49.520;11.284;2023-10-13T09:42:03;97397.47;;;27.08;54.50
15932;BME280;8065;49.520;11.284;2023-10-13T09:44:29;97388.91;;;26.77;55.44
15932;BME280;8065;49.520;11.284;2023-10-13T09:47:01;97393.06;;;26.98;55.87
15932;BME280;8065;49.520;11.284;2023-10-13T09:49:39;97394.81;;;26.89;55.87
15932;BME280;8065;49.520;11.284;2023-10-13T09:52:18;97389.97;;;27.13;55.82
15932;BME280;8065;49.520;11.284;2023-10-13T09:55:07;97378.00;;;27.23;55.26
15932;BME280;8065;49.520;11.284;2023-10-13T09:57:43;97369.00;;;27.67;54.72
15932;BME280;8065;49.520;11.284;2023-10-13T10:00:17;97377.28;;;27.77;54.20
15932;BME280;8065;49.520;11.284;2023-10-13T10:03:10;97373.63;;;28.21;53.83
15932;BME280;8065;49.520;11.284;2023-10-13T10:06:02;97374.69;;;28.62;52.15
15932;BME280;8065;49.520;11.284;2023-10-13T10:08:40;97365.94;;;28.67;51.96
15932;BME280;8065;49.520;11.284;2023-10-13T10:11:33;97367.84;;;28.45;51.87
15932;BME280;8065;49.520;11.284;2023-10-13T10:14:16;97361.63;;;28.44;52.63
15932;BME280;8065;49.520;11.284;2023-10-13T10:17:04;97369.69;;;27.97;51.76
15932;BME280;8065;49.520;11.284;2023-10-13T10:19:51;97367.06;;;28.06;53.50
15932;BME280;8065;49.520;11.284;2023-10-13T10:22:30;97355.03;;;27.91;53.43
15932;BME280;8065;49.520;11.284;2023-10-13T10:24:59;97353.03;;;27.79;54.05
15932;BME280;8065;49.520;11.284;2023-10-13T10:27:29;97350.41;;;27.62;55.01
15932;BME280;8065;49.520;11.284;2023-10-13T10:29:58;97356.44;;;27.70;54.21
15932;BME280;8065;49.520;11.284;2023-10-13T10:32:33;97346.50;;;27.63;54.09
15932;BME280;8065;49.520;11.284;2023-10-13T10:35:04;97347.00;;;27.58;54.24
15932;BME280;8065;49.520;11.284;2023-10-13T10:37:42;97337.41;;;27.25;55.21
15932;BME280;8065;49.520;11.284;2023-10-13T10:40:15;97343.28;;;27.52;54.76
15932;BME280;8065;49.520;11.284;2023-10-13T10:43:07;97339.63;;;27.97;53.74
15932;BME280;8065;49.520;11.284;2023-10-13T10:45:45;97327.91;;;28.60;53.94
15932;BME280;8065;49.520;11.284;2023-10-13T10:48:14;97328.38;;;29.15;52.13
15932;BME280;8065;49.520;11.284;2023-10-13T10:50:51;97324.88;;;29.36;47.91
15932;BME280;8065;49.520;11.284;2023-10-13T10:53:24;97319.94;;;29.75;47.00
15932;BME280;8065;49.520;11.284;2023-10-13T10:56:04;97312.53;;;30.15;46.79
15932;BME280;8065;49.520;11.284;2023-10-13T10:58:44;97303.75;;;30.29;44.93
15932;BME280;8065;49.520;11.284;2023-10-13T11:01:13;97309.78;;;30.15;43.90
15932;BME280;8065;49.520;11.284;2023-10-13T11:03:53;97301.53;;;30.06;44.32
15932;BME280;8065;49.520;11.284;2023-10-13T11:06:23;97299.25;;;30.05;44.84
15932;BME280;8065;49.520;11.284;2023-10-13T11:09:04;97302.44;;;30.03;44.40
15932;BME280;8065;49.520;11.284;2023-10-13T11:11:44;97307.81;;;29.85;43.80
15932;BME280;8065;49.520;11.284;2023-10-13T11:14:21;97297.00;;;29.81;43.91
15932;BME280;8065;49.520;11.284;2023-10-13T11:16:54;97296.81;;;30.07;44.76
15932;BME280;8065;49.520;11.284;2023-10-13T11:19:35;97300.81;;;29.84;44.11
15932;BME280;8065;49.520;11.284;2023-10-13T11:22:10;97279.84;;;29.99;44.38
15932;BME280;8065;49.520;11.284;2023-10-13T11:24:57;97284.41;;;29.93;44.38
15932;BME280;8065;49.520;11.284;2023-10-13T11:27:34;97271.41;;;30.15;44.54
15932;BME280;8065;49.520;11.284;2023-10-13T11:30:21;97267.63;;;30.49;44.03
15932;BME280;8065;49.520;11.284;2023-10-13T11:32:59;97249.25;;;30.77;44.46
15932;BME280;8065;49.520;11.284;2023-10-13T11:35:31;97253.97;;;30.77;44.14
15932;BME280;8065;49.520;11.284;2023-10-13T11:38:15;97241.63;;;30.81;44.29
15932;BME280;8065;49.520;11.284;2023-10-13T11:40:54;97255.03;;;30.70;43.68
15932;BME280;8065;49.520;11.284;2023-10-13T11:43:39;97236.88;;;30.91;43.90
15932;BME280;8065;49.520;11.284;2023-10-13T11:46:19;97235.19;;;30.48;43.00
15932;BME280;8065;49.520;11.284;2023-10-13T11:49:00;97245.28;;;30.60;43.11
15932;BME280;8065;49.520;11.284;2023-10-13T11:51:42;97238.22;;;30.41;42.45
15932;BME280;8065;49.520;11.284;2023-10-13T11:54:11;97238.25;;;30.59;41.95
15932;BME280;8065;49.520;11.284;2023-10-13T11:56:43;97223.59;;;30.34;41.99
15932;BME280;8065;49.520;11.284;2023-10-13T11:59:11;97227.25;;;30.41;41.81
15932;BME280;8065;49.520;11.284;2023-10-13T12:01:44;97233.03;;;30.52;42.10
15932;BME280;8065;49.520;11.284;2023-10-13T12:04:25;97232.44;;;30.29;41.56
15932;BME280;8065;49.520;11.284;2023-10-13T12:07:06;97221.91;;;30.46;42.00
15932;BME280;8065;49.520;11.284;2023-10-13T12:09:46;97211.13;;;30.70;42.31
15932;BME280;8065;49.520;11.284;2023-10-13T12:12:29;97214.47;;;30.83;41.71
15932;BME280;8065;49.520;11.284;2023-10-13T12:15:06;97212.03;;;30.67;42.54
15932;BME280;8065;49.520;11.284;2023-10-13T12:17:40;97209.59;;;30.23;42.37
15932;BME280;8065;49.520;11.284;2023-10-13T12:20:11;97196.16;;;30.53;42.00
15932;BME280;8065;49.520;11.284;2023-10-13T12:22:44;97196.78;;;30.57;41.63
15932;BME280;8065;49.520;11.284;2023-10-13T12:25:20;97189.19;;;30.61;42.32
15932;BME280;8065;49.520;11.284;2023-10-13T12:28:12;97186.72;;;30.72;42.19
15932;BME280;8065;49.520;11.284;2023-10-13T12:30:48;97194.63;;;30.88;41.83
15932;BME280;8065;49.520;11.284;2023-10-13T12:33:18;97179.22;;;31.00;41.90
15932;BME280;8065;49.520;11.284;2023-10-13T12:35:56;97181.22;;;30.90;41.48
15932;BME280;8065;49.520;11.284;2023-10-13T12:38:56;97176.56;;;31.24;41.43
15932;BME280;8065;49.520;11.284;2023-10-13T12:41:36;97166.44;;;31.39;41.74
15932;BME280;8065;49.520;11.284;2023-10-13T12:44:20;97162.03;;;31.66;41.12
15932;BME280;8065;49.520;11.284;2023-10-13T12:47:00;97169.28;;;31.54;41.12
15932;BME280;8065;49.520;11.284;2023-10-13T12:49:41;97164.66;;;31.27;39.47
15932;BME280;8065;49.520;11.284;2023-10-13T12:52:31;97162.88;;;31.15;39.74
15932;BME280;8065;49.520;11.284;2023-10-13T12:55:00;97151.59;;;31.04;40.03
15932;BME280;8065;49.520;11.284;2023-10-13T12:57:35;97158.34;;;30.93;40.07
15932;BME280;8065;49.520;11.284;2023-10-13T13:00:12;97146.50;;;30.60;40.23
15932;BME280;8065;49.520;11.284;2023-10-13T13:02:58;97143.91;;;30.65;40.49
15932;BME280;8065;49.520;11.284;2023-10-13T13:05:36;97150.75;;;30.52;39.92
15932;BME280;8065;49.520;11.284;2023-10-13T13:08:10;97148.47;;;30.50;40.98
15932;BME280;8065;49.520;11.284;2023-10-13T13:10:47;97149.56;;;30.25;40.56
15932;BME280;8065;49.520;11.284;2023-10-13T13:13:15;97149.56;;;30.25;40.51
15932;BME280;8065;49.520;11.284;2023-10-13T13:15:52;97146.22;;;30.21;40.95
15932;BME280;8065;49.520;11.284;2023-10-13T13:18:21;97143.31;;;30.25;40.85
15932;BME280;8065;49.520;11.284;2023-10-13T13:20:50;97135.81;;;30.34;41.69
15932;BME280;8065;49.520;11.284;2023-10-13T13:23:22;97137.78;;;30.52;41.04
15932;BME280;8065;49.520;11.284;2023-10-13T13:25:51;97132.78;;;30.60;40.44
15932;BME280;8065;49.520;11.284;2023-10-13T13:28:22;97136.75;;;30.68;41.07
15932;BME280;8065;49.520;11.284;2023-10-13T13:30:56;97122.69;;;30.84;40.67
15932;BME280;8065;49.520;11.284;2023-10-13T13:33:24;97121.41;;;31.04;40.89
15932;BME280;8065;49.520;11.284;2023-10-13T13:35:58;97112.06;;;31.19;40.62
15932;BME280;8065;49.520;11.284;2023-10-13T13:38:26;97108.31;;;31.32;40.37
15932;BME280;8065;49.520;11.284;2023-10-13T13:40:57;97100.38;;;31.01;39.49
15932;BME280;8065;49.520;11.284;2023-10-13T13:43:27;97093.16;;;31.12;39.82
15932;BME280;8065;49.520;11.284;2023-10-13T13:46:18;97083.78;;;31.28;39.87
15932;BME280;8065;49.520;11.284;2023-10-13T13:48:50;97079.34;;;30.88;38.87
15932;BME280;8065;49.520;11.284;2023-10-13T13:51:24;97078.38;;;31.10;39.17
15932;BME280;8065;49.520;11.284;2023-10-13T13:53:55;97072.78;;;31.28;39.46
15932;BME280;8065;49.520;11.284;2023-10-13T13:56:24;97074.25;;;31.38;39.42
15932;BME280;8065;49.520;11.284;2023-10-13T13:58:54;97072.69;;;31.46;38.94
15932;BME280;8065;49.520;11.284;2023-10-13T14:01:34;97060.06;;;31.63;38.22
15932;BME280;8065;49.520;11.284;2023-10-13T14:04:03;97064.09;;;31.53;38.03